createdAt,value
2023-03-22T00:04:27.841Z,1.23
2023-03-22T00:09:29.466Z,1.10
2023-03-22T00:14:31.094Z,1.50
2023-03-22T00:19:34.010Z,1.85
2023-03-22T00:24:35.766Z,1.98
2023-03-22T00:29:37.486Z,1.77
2023-03-22T00:34:39.064Z,1.63
2023-03-22T00:39:40.626Z,1.73
2023-03-22T00:44:42.308Z,1.27
2023-03-22T00:49:43.950Z,1.83
2023-03-22T00:54:45.822Z,1.90
2023-03-22T00:59:47.822Z,1.92
2023-03-22T01:04:49.937Z,2.03
2023-03-22T01:09:52.567Z,1.88
2023-03-22T01:14:54.278Z,2.00
2023-03-22T01:19:56.178Z,2.15
2023-03-22T01:24:57.825Z,2.83
2023-03-22T01:29:59.854Z,2.20
2023-03-22T01:35:01.515Z,2.33
2023-03-22T01:40:06.671Z,2.63
2023-03-22T01:45:14.848Z,3.00
2023-03-22T01:50:19.560Z,2.25
2023-03-22T01:55:24.492Z,2.63
2023-03-22T02:00:38.506Z,2.80
2023-03-22T02:05:52.943Z,3.10
2023-03-22T02:10:57.452Z,3.15
2023-03-22T02:16:40.156Z,2.60
2023-03-22T02:22:04.745Z,2.67
2023-03-22T02:27:16.234Z,2.08
2023-03-22T02:32:42.604Z,3.03
2023-03-22T02:38:14.569Z,2.72
2023-03-22T02:43:34.306Z,2.75
2023-03-22T02:48:45.364Z,2.63
2023-03-22T02:53:55.526Z,2.50
2023-03-22T03:04:04.959Z,3.10
2023-03-22T03:09:08.228Z,2.85
2023-03-22T03:14:22.387Z,2.90
2023-03-22T03:19:33.778Z,3.00
2023-03-22T03:25:01.909Z,3.55
2023-03-22T03:30:27.236Z,3.22
2023-03-22T03:35:39.256Z,3.03
2023-03-22T03:40:46.512Z,4.60
2023-03-22T03:45:48.526Z,4.22
2023-03-22T03:50:53.051Z,3.90
2023-03-22T03:55:55.316Z,3.67
2023-03-22T04:00:57.222Z,3.70
2023-03-22T04:06:25.411Z,3.60
2023-03-22T04:11:31.004Z,4.20
2023-03-22T04:16:35.952Z,4.60
2023-03-22T04:21:38.646Z,3.60
2023-03-22T04:26:41.318Z,3.67
2023-03-22T04:32:03.599Z,4.15
2023-03-22T04:37:16.397Z,4.75
2023-03-22T04:42:31.591Z,5.07
2023-03-22T04:47:50.504Z,4.75
2023-03-22T04:52:52.358Z,5.57
2023-03-22T04:57:54.753Z,5.10
2023-03-22T05:02:58.733Z,4.85
2023-03-22T05:08:07.681Z,5.43
2023-03-22T05:13:09.498Z,5.35
2023-03-22T05:18:16.702Z,3.95
2023-03-22T05:23:19.253Z,5.05
2023-03-22T05:28:24.928Z,4.65
2023-03-22T05:33:31.861Z,4.80
2023-03-22T05:38:33.882Z,4.85
2023-03-22T05:43:38.415Z,3.97
2023-03-22T05:48:41.274Z,4.07
2023-03-22T05:53:48.070Z,3.67
2023-03-22T05:59:00.314Z,4.07
2023-03-22T06:04:02.284Z,4.05
2023-03-22T06:09:20.262Z,3.15
2023-03-22T06:14:26.097Z,3.47
2023-03-22T06:19:40.546Z,3.42
2023-03-22T06:24:43.927Z,2.90
2023-03-22T06:29:54.703Z,2.95
2023-03-22T06:34:59.515Z,3.08
2023-03-22T06:40:02.031Z,2.85
2023-03-22T06:45:04.997Z,1.83
2023-03-22T06:50:10.925Z,2.78
2023-03-22T06:55:45.190Z,2.17
2023-03-22T07:00:52.948Z,2.50
2023-03-22T07:06:06.416Z,2.85
2023-03-22T07:11:10.966Z,2.45
2023-03-22T07:16:13.082Z,2.92
2023-03-22T07:21:22.378Z,2.80
2023-03-22T07:26:30.803Z,2.20
2023-03-22T07:31:37.770Z,2.65
2023-03-22T07:36:42.180Z,2.38
2023-03-22T07:41:46.522Z,3.17
2023-03-22T07:47:00.766Z,2.28
2023-03-22T07:52:11.141Z,2.72
2023-03-22T07:57:12.890Z,2.95
2023-03-22T08:02:20.701Z,2.30
2023-03-22T08:07:27.016Z,2.13
2023-03-22T08:12:28.820Z,2.35
2023-03-22T08:17:39.953Z,2.33
2023-03-22T08:22:47.255Z,2.63
2023-03-22T08:28:13.252Z,2.10
2023-03-22T08:33:16.174Z,2.20
2023-03-22T08:38:20.281Z,2.05
2023-03-22T08:43:27.407Z,2.70
2023-03-22T08:48:30.819Z,3.25
2023-03-22T08:53:42.505Z,2.75
2023-03-22T08:59:09.305Z,2.20
2023-03-22T09:04:20.934Z,2.55
2023-03-22T09:09:22.710Z,2.40
2023-03-22T09:14:27.152Z,2.40
2023-03-22T09:19:29.863Z,2.17
2023-03-22T09:24:31.707Z,2.78
2023-03-22T09:29:36.995Z,3.30
2023-03-22T09:34:43.049Z,2.28
2023-03-22T09:39:44.813Z,2.45
2023-03-22T09:44:49.032Z,3.85
2023-03-22T09:50:04.873Z,1.92
2023-03-22T09:55:22.914Z,2.42
2023-03-22T10:00:43.889Z,2.35
2023-03-22T10:06:00.239Z,2.17
2023-03-22T10:11:02.202Z,2.30
2023-03-22T10:16:10.705Z,2.20
2023-03-22T10:21:18.186Z,2.15
2023-03-22T10:26:34.558Z,3.15
2023-03-22T10:31:36.270Z,2.92
2023-03-22T10:36:41.147Z,2.90
2023-03-22T10:41:44.173Z,2.80
2023-03-22T10:46:49.325Z,2.60
2023-03-22T10:51:54.576Z,2.35
2023-03-22T10:56:56.542Z,3.13
2023-03-22T11:01:58.235Z,2.45
2023-03-22T11:06:59.940Z,2.17
2023-03-22T11:12:02.878Z,2.38
2023-03-22T11:17:12.625Z,2.95
2023-03-22T11:22:24.844Z,2.30
2023-03-22T11:27:29.243Z,2.75
2023-03-22T11:32:32.967Z,2.35
2023-03-22T11:37:41.524Z,2.72
2023-03-22T11:42:43.694Z,2.80
2023-03-22T11:47:45.525Z,3.08
2023-03-22T11:52:48.537Z,2.63
2023-03-22T11:57:50.339Z,2.95
2023-03-22T12:02:58.015Z,3.08
2023-03-22T12:08:09.392Z,2.40
2023-03-22T12:13:44.488Z,2.47
2023-03-22T12:19:04.910Z,2.65
2023-03-22T12:29:27.074Z,3.28
2023-03-22T12:34:52.537Z,3.72
2023-03-22T12:40:06.133Z,2.80
2023-03-22T12:45:17.172Z,3.42
2023-03-22T12:50:23.824Z,4.40
2023-03-22T12:55:36.154Z,4.05
2023-03-22T13:00:41.071Z,4.25
2023-03-22T13:05:45.782Z,3.60
2023-03-22T13:11:03.390Z,3.45
2023-03-22T13:16:11.060Z,3.90
2023-03-22T13:21:32.505Z,5.13
2023-03-22T13:26:45.652Z,3.65
2023-03-22T13:31:58.533Z,3.55
2023-03-22T13:37:03.556Z,3.58
2023-03-22T13:42:21.927Z,3.30
2023-03-22T13:47:32.786Z,2.30
2023-03-22T13:52:38.845Z,2.60
2023-03-22T13:57:58.992Z,2.10
2023-03-22T14:03:13.630Z,3.00
2023-03-22T14:08:23.828Z,2.25
2023-03-22T14:13:40.334Z,2.17
2023-03-22T14:18:46.861Z,3.35
